createdAt,value
2018-05-24T00:01:03.813Z,22.50
2018-05-24T00:03:33.668Z,22.50
2018-05-24T00:06:02.877Z,22.50
2018-05-24T00:08:32.224Z,22.40
2018-05-24T00:11:03.265Z,22.20
2018-05-24T00:13:35.285Z,22.20
2018-05-24T00:16:05.818Z,22.10
2018-05-24T00:18:34.953Z,22.10
2018-05-24T00:21:04.134Z,22.10
2018-05-24T00:23:34.166Z,22.20
2018-05-24T00:26:03.289Z,22.30
2018-05-24T00:28:32.464Z,22.20
2018-05-24T00:31:01.525Z,22.20
2018-05-24T00:33:32.029Z,22.20
2018-05-24T00:36:01.317Z,22.00
2018-05-24T00:38:31.676Z,21.90
2018-05-24T00:41:01.735Z,21.80
2018-05-24T00:43:32.091Z,21.70
2018-05-24T00:46:01.411Z,21.70
2018-05-24T00:48:30.891Z,21.60
2018-05-24T00:51:00.493Z,21.60
2018-05-24T00:53:29.692Z,21.70
2018-05-24T00:55:58.932Z,21.70
2018-05-24T00:58:28.846Z,21.90
2018-05-24T01:00:58.798Z,21.90
2018-05-24T01:03:27.925Z,21.90
2018-05-24T01:05:57.007Z,21.90
2018-05-24T01:08:26.246Z,21.80
2018-05-24T01:10:56.226Z,21.80
2018-05-24T01:13:26.495Z,21.60
2018-05-24T01:15:55.774Z,21.60
2018-05-24T01:18:25.507Z,21.50
2018-05-24T01:20:55.407Z,21.30
2018-05-24T01:23:24.739Z,21.20
2018-05-24T01:25:54.056Z,21.10
2018-05-24T01:28:25.969Z,21.10
2018-05-24T01:30:55.902Z,21.10
2018-05-24T01:33:25.191Z,21.00
2018-05-24T01:35:54.437Z,21.00
2018-05-24T01:38:23.833Z,21.00
2018-05-24T01:40:54.351Z,21.00
2018-05-24T01:43:23.563Z,20.90
2018-05-24T01:45:52.851Z,20.80
2018-05-24T01:48:22.911Z,20.70
2018-05-24T01:50:52.152Z,20.70
2018-05-24T01:53:23.699Z,20.70
2018-05-24T01:55:53.192Z,20.60
2018-05-24T01:58:22.469Z,20.60
2018-05-24T02:00:52.307Z,20.50
2018-05-24T02:03:22.430Z,20.50
2018-05-24T02:05:51.568Z,20.40
2018-05-24T02:08:20.682Z,20.40
2018-05-24T02:10:49.793Z,20.30
2018-05-24T02:13:18.911Z,20.30
2018-05-24T02:15:48.041Z,20.20
2018-05-24T02:18:17.641Z,20.20
2018-05-24T02:20:48.306Z,20.20
2018-05-24T02:23:18.482Z,20.30
2018-05-24T02:28:23.849Z,20.20
2018-05-24T02:30:53.672Z,20.10
2018-05-24T02:33:25.063Z,20.00
2018-05-24T02:35:54.617Z,20.00
2018-05-24T02:38:23.870Z,20.10
2018-05-24T02:40:53.618Z,20.10
2018-05-24T02:43:23.197Z,20.10
2018-05-24T02:45:52.420Z,20.10
2018-05-24T02:48:22.161Z,20.10
2018-05-24T02:50:52.052Z,20.20
2018-05-24T02:53:22.007Z,20.30
2018-05-24T02:55:53.818Z,20.30
2018-05-24T02:58:24.300Z,20.40
2018-05-24T03:00:53.494Z,20.50
2018-05-24T03:03:25.385Z,20.50
2018-05-24T03:08:30.278Z,20.70
2018-05-24T03:14:14.769Z,20.90
2018-05-24T03:16:44.191Z,20.90
2018-05-24T03:19:16.422Z,20.90
2018-05-24T03:21:45.924Z,21.00
2018-05-24T03:24:17.840Z,21.10
2018-05-24T03:26:47.436Z,21.10
2018-05-24T03:29:17.057Z,21.10
2018-05-24T03:31:47.062Z,21.10
2018-05-24T03:34:16.230Z,21.10
2018-05-24T03:36:45.405Z,21.10
2018-05-24T03:39:15.439Z,21.20
2018-05-24T03:41:44.550Z,21.20
2018-05-24T03:44:13.758Z,21.20
2018-05-24T03:46:42.904Z,21.20
2018-05-24T03:49:12.972Z,21.30
2018-05-24T03:51:42.128Z,21.30
2018-05-24T03:54:11.857Z,21.30
2018-05-24T03:56:43.491Z,21.20
2018-05-24T03:59:33.908Z,21.10
2018-05-24T04:02:14.525Z,20.90
2018-05-24T04:04:54.798Z,20.20
2018-05-24T04:07:24.776Z,20.20
2018-05-24T04:09:55.223Z,20.00
2018-05-24T04:12:27.362Z,19.80
2018-05-24T04:14:56.461Z,19.50
2018-05-24T04:17:25.636Z,19.30
2018-05-24T04:19:56.447Z,19.20
2018-05-24T04:22:26.210Z,19.10
2018-05-24T04:24:55.557Z,18.90
2018-05-24T04:27:24.688Z,18.80
2018-05-24T04:29:53.895Z,18.70
2018-05-24T04:32:23.417Z,18.70
2018-05-24T04:34:52.532Z,18.60
2018-05-24T04:37:25.727Z,18.50
2018-05-24T04:39:55.676Z,18.50
2018-05-24T04:42:24.895Z,18.40
2018-05-24T04:44:53.981Z,18.30
2018-05-24T04:47:23.108Z,18.40
2018-05-24T04:49:53.208Z,18.30
2018-05-24T04:52:22.249Z,18.30
2018-05-24T04:54:52.234Z,18.40
2018-05-24T04:57:21.375Z,18.40
2018-05-24T04:59:51.778Z,18.30
2018-05-24T05:02:20.913Z,18.30
2018-05-24T05:04:51.417Z,18.30
2018-05-24T05:07:20.525Z,18.30
2018-05-24T05:09:49.753Z,18.40
2018-05-24T05:12:18.830Z,18.30
2018-05-24T05:14:48.106Z,18.20
2018-05-24T05:17:17.231Z,18.20
2018-05-24T05:19:46.316Z,18.10
2018-05-24T05:22:16.719Z,18.10
2018-05-24T05:24:46.525Z,18.00
2018-05-24T05:27:16.737Z,18.00
2018-05-24T05:29:46.703Z,18.00
2018-05-24T05:32:16.686Z,18.00
2018-05-24T05:34:46.312Z,18.00
2018-05-24T05:37:16.000Z,18.00
2018-05-24T05:39:45.139Z,18.00
2018-05-24T05:42:14.880Z,18.00
2018-05-24T05:44:44.550Z,18.10
2018-05-24T05:47:13.755Z,18.10
2018-05-24T05:49:42.914Z,18.10
2018-05-24T05:52:12.042Z,18.10
2018-05-24T05:54:41.218Z,18.10
2018-05-24T05:57:10.337Z,18.00
2018-05-24T05:59:40.436Z,17.90
2018-05-24T06:02:09.656Z,17.90
2018-05-24T06:04:38.810Z,17.70
2018-05-24T06:07:08.086Z,17.60
2018-05-24T06:09:37.250Z,17.50
2018-05-24T06:12:06.353Z,17.50
2018-05-24T06:14:36.335Z,17.40
2018-05-24T06:17:05.539Z,17.40
2018-05-24T06:19:34.596Z,17.50
2018-05-24T06:22:04.574Z,17.50
2018-05-24T06:24:33.717Z,17.40
2018-05-24T06:27:03.351Z,17.50
2018-05-24T06:29:32.565Z,17.60
2018-05-24T06:32:01.891Z,17.50
2018-05-24T06:34:31.072Z,17.50
2018-05-24T06:37:00.475Z,17.60
2018-05-24T06:39:30.068Z,17.50
2018-05-24T06:41:59.251Z,17.50
2018-05-24T06:44:33.012Z,17.50
2018-05-24T06:49:49.113Z,17.40
2018-05-24T06:52:18.502Z,17.40
2018-05-24T06:54:47.759Z,17.50
2018-05-24T06:57:16.876Z,17.50
2018-05-24T06:59:46.137Z,17.40
2018-05-24T07:02:15.457Z,17.40
2018-05-24T07:04:44.553Z,17.40
2018-05-24T07:07:18.361Z,17.40
2018-05-24T07:09:47.536Z,17.50
2018-05-24T07:12:16.730Z,17.50
2018-05-24T07:14:49.013Z,17.60
2018-05-24T07:17:19.104Z,17.60
2018-05-24T07:20:09.395Z,17.60
2018-05-24T07:22:39.818Z,17.60
2018-05-24T07:25:11.053Z,17.50
2018-05-24T07:27:40.561Z,17.50
2018-05-24T07:30:11.397Z,17.50
2018-05-24T07:32:41.850Z,17.50
2018-05-24T07:35:12.356Z,17.50
2018-05-24T07:37:41.566Z,17.50
2018-05-24T07:40:10.740Z,17.50
2018-05-24T07:42:40.614Z,17.40
2018-05-24T07:45:09.739Z,17.50
2018-05-24T07:47:39.599Z,17.40
2018-05-24T07:50:08.847Z,17.40
2018-05-24T07:52:38.657Z,17.30
2018-05-24T07:55:07.729Z,17.30
2018-05-24T07:57:36.845Z,17.30
2018-05-24T08:00:06.736Z,17.30
2018-05-24T08:02:35.836Z,17.30
2018-05-24T08:05:05.095Z,17.20
2018-05-24T08:07:34.291Z,17.30
2018-05-24T08:10:06.884Z,17.30
2018-05-24T08:12:36.726Z,17.20
2018-05-24T08:15:06.543Z,17.10
2018-05-24T08:17:35.945Z,17.00
2018-05-24T08:20:05.870Z,17.00
2018-05-24T08:22:41.278Z,17.00
2018-05-24T08:25:11.048Z,17.00
2018-05-24T08:27:40.446Z,17.10
2018-05-24T08:30:11.304Z,17.10
2018-05-24T08:32:40.575Z,17.10
2018-05-24T08:35:09.863Z,17.10
2018-05-24T08:37:38.937Z,17.10
2018-05-24T08:40:09.509Z,17.00
2018-05-24T08:42:38.614Z,17.00
2018-05-24T08:45:07.969Z,17.00
2018-05-24T08:47:41.065Z,17.00
2018-05-24T08:50:12.030Z,17.10
2018-05-24T08:52:46.939Z,17.20
2018-05-24T08:55:16.356Z,17.20
2018-05-24T08:57:45.465Z,17.20
2018-05-24T09:00:15.903Z,17.10
2018-05-24T09:02:45.475Z,17.20
2018-05-24T09:05:16.227Z,17.20
2018-05-24T09:07:45.518Z,17.20
2018-05-24T09:10:18.840Z,17.20
2018-05-24T09:12:48.310Z,17.30
2018-05-24T09:15:17.450Z,17.30
2018-05-24T09:17:46.791Z,17.30
2018-05-24T09:20:17.864Z,17.30
2018-05-24T09:22:47.741Z,17.30
2018-05-24T09:25:17.448Z,17.30
2018-05-24T09:27:47.614Z,17.20
2018-05-24T09:30:18.705Z,17.30
2018-05-24T09:48:10.270Z,17.20
2018-05-24T09:50:43.345Z,17.30
2018-05-24T09:53:13.502Z,17.30
2018-05-24T09:55:42.787Z,17.30
2018-05-24T09:58:11.922Z,17.20
2018-05-24T10:00:42.389Z,17.10
2018-05-24T10:03:11.518Z,17.10
2018-05-24T10:05:41.618Z,17.00
2018-05-24T10:08:10.826Z,16.80
2018-05-24T10:10:43.248Z,16.80
2018-05-24T10:13:12.586Z,16.70
2018-05-24T10:15:42.013Z,16.90
2018-05-24T10:18:13.503Z,17.00
2018-05-24T10:20:45.323Z,17.00
2018-05-24T10:23:17.438Z,17.20
2018-05-24T10:25:46.768Z,17.20
2018-05-24T10:28:16.285Z,17.20
2018-05-24T10:30:53.328Z,17.30
2018-05-24T10:33:22.774Z,17.30
2018-05-24T10:35:51.933Z,17.40
2018-05-24T10:38:21.286Z,17.50
2018-05-24T10:40:51.869Z,17.40
2018-05-24T10:43:22.024Z,17.40
2018-05-24T10:45:51.281Z,17.50
2018-05-24T10:48:20.806Z,17.50
2018-05-24T10:50:53.360Z,17.60
2018-05-24T10:53:22.664Z,17.60
2018-05-24T10:55:51.944Z,17.60
2018-05-24T10:58:21.091Z,17.50
2018-05-24T11:00:51.282Z,17.50
2018-05-24T11:03:20.879Z,17.40
2018-05-24T11:05:50.292Z,17.40
2018-05-24T11:08:21.235Z,17.30
2018-05-24T11:13:27.260Z,17.40
2018-05-24T11:15:56.406Z,17.40
2018-05-24T11:18:26.562Z,17.40
2018-05-24T11:20:57.079Z,17.30
2018-05-24T11:23:27.201Z,17.20
2018-05-24T11:25:56.796Z,17.20
2018-05-24T11:28:27.814Z,17.10
2018-05-24T11:31:01.297Z,17.10
2018-05-24T11:33:31.437Z,17.10
2018-05-24T11:36:00.850Z,17.10
2018-05-24T11:38:31.364Z,17.00
2018-05-24T11:41:02.546Z,17.00
2018-05-24T11:43:31.849Z,17.00
2018-05-24T11:46:01.334Z,17.00
2018-05-24T11:48:31.687Z,17.00
2018-05-24T11:51:02.929Z,16.90
2018-05-24T11:53:32.897Z,16.90
2018-05-24T11:56:04.145Z,16.90
2018-05-24T11:58:36.680Z,17.00
2018-05-24T12:01:07.789Z,17.00
2018-05-24T12:03:44.363Z,17.10
2018-05-24T12:06:15.339Z,17.40
2018-05-24T12:08:52.239Z,17.40
2018-05-24T12:11:22.274Z,17.50
2018-05-24T12:13:51.438Z,17.60
2018-05-24T12:16:21.215Z,17.60
2018-05-24T12:18:55.090Z,17.70
2018-05-24T12:21:29.965Z,17.90
2018-05-24T12:23:59.303Z,17.90
2018-05-24T12:26:28.842Z,17.90
2018-05-24T12:28:58.139Z,17.90
2018-05-24T12:31:30.483Z,18.00
2018-05-24T12:34:05.699Z,18.10
2018-05-24T12:42:16.644Z,18.20
2018-05-24T12:44:51.881Z,18.20
2018-05-24T12:47:21.661Z,18.30
2018-05-24T12:49:58.337Z,18.40
2018-05-24T12:52:28.119Z,18.40
2018-05-24T12:54:59.957Z,18.50
2018-05-24T12:57:38.600Z,18.70
2018-05-24T13:00:12.146Z,18.80
2018-05-24T13:02:49.511Z,18.90
2018-05-24T13:05:19.396Z,19.00
2018-05-24T13:07:50.680Z,19.10
2018-05-24T13:10:21.287Z,19.20
2018-05-24T13:18:33.373Z,19.20
2018-05-24T13:21:07.615Z,19.20
2018-05-24T13:23:42.882Z,19.20
2018-05-24T13:26:14.353Z,19.20
2018-05-24T13:28:45.894Z,19.30
2018-05-24T13:31:23.922Z,19.40
2018-05-24T13:41:10.180Z,19.20
2018-05-24T13:43:43.384Z,19.30
2018-05-24T13:46:15.713Z,19.40
2018-05-24T13:48:51.235Z,19.50
2018-05-24T13:51:25.361Z,19.90
2018-05-24T13:54:01.203Z,20.10
2018-05-24T13:57:08.689Z,20.30
2018-05-24T13:59:39.300Z,20.40
2018-05-24T14:02:23.463Z,20.60
2018-05-24T14:04:55.282Z,20.60
2018-05-24T14:07:25.550Z,20.70
2018-05-24T14:09:55.621Z,20.90
2018-05-24T14:12:28.526Z,21.00
2018-05-24T14:15:00.516Z,21.20
2018-05-24T14:17:36.010Z,21.40
2018-05-24T14:20:07.653Z,21.50
2018-05-24T14:22:38.153Z,21.80
2018-05-24T14:25:07.624Z,21.70
2018-05-24T14:27:36.885Z,22.00
2018-05-24T14:30:06.292Z,22.10
2018-05-24T14:32:38.267Z,22.30
2018-05-24T14:35:07.346Z,23.20
2018-05-24T14:37:37.966Z,23.80
2018-05-24T14:40:07.144Z,24.20
2018-05-24T14:42:36.255Z,24.70
2018-05-24T14:45:05.410Z,24.90
2018-05-24T14:47:35.347Z,24.70
2018-05-24T14:50:05.337Z,24.70
2018-05-24T14:52:36.435Z,25.50
2018-05-24T14:55:06.464Z,26.00
2018-05-24T14:57:37.388Z,26.00
2018-05-24T15:00:06.686Z,26.60
2018-05-24T15:02:35.781Z,26.70
2018-05-24T15:05:06.234Z,26.30
2018-05-24T15:07:35.326Z,26.10
2018-05-24T15:10:05.374Z,25.20
2018-05-24T15:12:34.535Z,25.20
2018-05-24T15:15:04.318Z,24.80
2018-05-24T15:17:38.112Z,25.70
2018-05-24T15:20:10.096Z,26.30
2018-05-24T15:22:40.175Z,26.50
2018-05-24T15:25:13.785Z,26.50
2018-05-24T15:27:45.804Z,26.30
2018-05-24T15:30:14.959Z,26.20
2018-05-24T15:32:44.163Z,26.70
2018-05-24T15:35:15.830Z,27.50
2018-05-24T15:37:45.532Z,27.80
2018-05-24T15:42:51.980Z,28.30
2018-05-24T15:45:22.019Z,28.50
2018-05-24T15:47:51.229Z,28.50
2018-05-24T15:50:20.410Z,28.30
2018-05-24T15:52:49.802Z,28.70
2018-05-24T15:55:19.205Z,29.40
2018-05-24T15:57:49.413Z,29.90
2018-05-24T16:00:18.814Z,30.40
2018-05-24T16:02:48.171Z,30.90
2018-05-24T16:05:18.176Z,31.00
2018-05-24T16:07:49.359Z,30.60
2018-05-24T16:10:18.583Z,30.60
2018-05-24T16:12:47.715Z,31.00
2018-05-24T16:15:17.185Z,31.10
2018-05-24T16:17:47.307Z,31.40
2018-05-24T16:20:16.502Z,31.50
2018-05-24T16:22:45.567Z,31.80
2018-05-24T16:25:15.214Z,31.80
2018-05-24T16:27:44.554Z,31.80
2018-05-24T16:30:13.691Z,31.70
2018-05-24T16:32:47.360Z,31.50
2018-05-24T16:35:17.454Z,31.50
2018-05-24T16:37:46.818Z,32.20
2018-05-24T16:40:15.944Z,32.30
2018-05-24T16:42:45.133Z,31.60
2018-05-24T16:45:14.228Z,31.10
2018-05-24T16:47:43.585Z,30.70
2018-05-24T16:50:12.813Z,31.10
2018-05-24T16:52:45.977Z,31.50
2018-05-24T16:55:15.161Z,31.50
2018-05-24T16:57:44.610Z,31.00
2018-05-24T17:00:13.805Z,30.60
2018-05-24T17:02:43.387Z,30.10
2018-05-24T17:05:12.640Z,30.00
2018-05-24T17:07:43.197Z,30.10
2018-05-24T17:10:12.356Z,29.90
2018-05-24T17:12:41.534Z,29.70
2018-05-24T17:15:11.560Z,29.80
2018-05-24T17:17:42.545Z,29.40
2018-05-24T17:20:12.557Z,29.40
2018-05-24T17:22:41.709Z,29.20
2018-05-24T17:25:12.000Z,29.80
2018-05-24T17:27:41.915Z,31.60
2018-05-24T17:30:12.420Z,31.50
2018-05-24T17:32:41.761Z,32.40
2018-05-24T17:35:10.815Z,32.40
2018-05-24T17:37:40.959Z,33.20
2018-05-24T17:40:10.472Z,33.10
2018-05-24T17:42:40.357Z,33.10
2018-05-24T17:45:10.129Z,31.70
2018-05-24T17:47:40.689Z,32.70
2018-05-24T17:50:10.160Z,33.20
2018-05-24T17:52:40.085Z,33.90
2018-05-24T17:55:09.921Z,34.30
2018-05-24T17:57:40.348Z,33.50
2018-05-24T18:00:09.704Z,32.90
2018-05-24T18:02:40.402Z,31.30
2018-05-24T18:05:10.182Z,31.20
2018-05-24T18:07:39.322Z,30.10
2018-05-24T18:10:08.391Z,29.20
2018-05-24T18:12:37.569Z,28.50
2018-05-24T18:15:06.891Z,27.80
2018-05-24T18:17:36.038Z,27.20
2018-05-24T18:20:06.087Z,26.70
2018-05-24T18:22:35.438Z,26.40
2018-05-24T18:25:04.605Z,25.80
2018-05-24T18:27:34.566Z,25.50
2018-05-24T18:30:04.215Z,25.20
2018-05-24T18:32:35.629Z,25.00
2018-05-24T18:35:08.006Z,24.60
2018-05-24T18:37:37.788Z,24.50
2018-05-24T18:40:08.416Z,24.50
2018-05-24T18:42:43.530Z,24.40
2018-05-24T18:45:14.854Z,24.40
2018-05-24T18:47:45.312Z,24.30
2018-05-24T18:50:14.829Z,24.10
2018-05-24T18:52:44.664Z,23.80
2018-05-24T18:55:15.240Z,23.70
2018-05-24T18:57:47.366Z,23.60
2018-05-24T19:00:16.929Z,23.60
2018-05-24T19:02:47.166Z,23.40
2018-05-24T19:05:16.275Z,23.30
2018-05-24T19:07:46.345Z,22.60
2018-05-24T19:10:15.537Z,22.60
2018-05-24T19:12:46.312Z,22.10
2018-05-24T19:15:16.152Z,21.80
2018-05-24T19:17:46.462Z,21.50
2018-05-24T19:20:16.480Z,21.10
2018-05-24T19:22:57.020Z,21.00
2018-05-24T19:25:28.175Z,21.00
2018-05-24T19:28:00.454Z,21.00
2018-05-24T19:30:32.330Z,21.10
2018-05-24T19:33:06.284Z,21.40
2018-05-24T19:35:37.120Z,21.40
2018-05-24T19:38:10.001Z,21.60
2018-05-24T19:40:39.875Z,21.80
2018-05-24T19:43:44.408Z,21.70
2018-05-24T19:46:17.393Z,21.60
2018-05-24T19:48:46.945Z,21.40
2018-05-24T19:53:53.351Z,21.40
2018-05-24T19:56:23.590Z,21.20
2018-05-24T19:58:53.735Z,21.20
2018-05-24T20:01:23.805Z,21.50
2018-05-24T20:03:56.232Z,21.50
2018-05-24T20:06:25.618Z,21.60
2018-05-24T20:08:58.212Z,21.60
2018-05-24T20:11:28.974Z,21.90
2018-05-24T20:13:59.889Z,21.90
2018-05-24T20:16:30.143Z,21.90
2018-05-24T20:19:00.425Z,21.90
2018-05-24T20:21:29.939Z,21.80
2018-05-24T20:24:00.468Z,21.80
2018-05-24T20:26:31.016Z,22.00
2018-05-24T20:29:17.724Z,22.10
2018-05-24T20:31:51.452Z,22.20
2018-05-24T20:34:20.800Z,22.40
2018-05-24T20:36:50.880Z,22.40
2018-05-24T20:39:23.452Z,22.50
2018-05-24T20:41:52.661Z,22.60
2018-05-24T20:44:24.014Z,22.50
2018-05-24T20:46:54.001Z,22.40
2018-05-24T20:49:23.141Z,22.40
2018-05-24T20:51:52.907Z,22.40
2018-05-24T20:54:23.280Z,22.40
2018-05-24T20:56:56.915Z,22.30
2018-05-24T20:59:34.071Z,22.30
2018-05-24T21:04:45.418Z,22.40
2018-05-24T21:07:15.610Z,22.40
2018-05-24T21:09:46.193Z,22.50
2018-05-24T21:12:15.669Z,22.50
2018-05-24T21:14:46.525Z,22.30
2018-05-24T21:17:16.062Z,22.10
2018-05-24T21:19:46.019Z,22.00
2018-05-24T21:22:21.223Z,21.90
2018-05-24T21:24:53.783Z,21.90
2018-05-24T21:27:23.210Z,22.00
2018-05-24T21:29:52.316Z,22.10
2018-05-24T21:32:21.781Z,22.20
2018-05-24T21:34:51.743Z,22.30
2018-05-24T21:37:20.910Z,22.30
2018-05-24T21:39:50.280Z,22.20
2018-05-24T21:42:19.505Z,22.20
2018-05-24T21:44:49.891Z,22.10
2018-05-24T21:47:19.784Z,22.30
2018-05-24T21:49:48.935Z,22.20
2018-05-24T21:52:18.164Z,22.30
2018-05-24T21:54:48.417Z,22.50
2018-05-24T21:57:18.488Z,22.60
2018-05-24T21:59:48.940Z,22.70
2018-05-24T22:02:18.173Z,22.80
2018-05-24T22:04:50.448Z,22.80
2018-05-24T22:07:19.589Z,22.80
2018-05-24T22:09:48.886Z,22.60
2018-05-24T22:12:18.019Z,22.50
2018-05-24T22:14:47.937Z,22.60
2018-05-24T22:17:17.812Z,22.70
2018-05-24T22:19:46.935Z,22.60
2018-05-24T22:22:16.001Z,22.70
2018-05-24T22:24:45.080Z,22.80
2018-05-24T22:27:14.302Z,22.90
2018-05-24T22:29:43.558Z,22.90
2018-05-24T22:32:12.880Z,23.00
2018-05-24T22:34:42.358Z,23.00
2018-05-24T22:37:11.568Z,23.10
2018-05-24T22:39:40.733Z,23.20
2018-05-24T22:42:10.678Z,23.10
2018-05-24T22:44:39.929Z,23.10
2018-05-24T22:47:09.027Z,23.10
2018-05-24T22:49:38.547Z,23.20
2018-05-24T22:52:07.860Z,23.20
2018-05-24T22:54:37.896Z,23.10
2018-05-24T22:57:07.240Z,23.10
2018-05-24T22:59:37.345Z,23.00
2018-05-24T23:02:06.951Z,23.10
2018-05-24T23:04:36.503Z,23.10
2018-05-24T23:07:05.703Z,23.10
2018-05-24T23:09:34.971Z,23.10
2018-05-24T23:12:04.879Z,22.70
2018-05-24T23:14:34.939Z,22.70
2018-05-24T23:17:05.049Z,22.40
2018-05-24T23:19:34.275Z,22.40
2018-05-24T23:22:04.175Z,22.30
2018-05-24T23:24:33.514Z,22.30
2018-05-24T23:27:03.097Z,22.20
2018-05-24T23:29:32.300Z,22.00
2018-05-24T23:32:02.495Z,22.00
2018-05-24T23:34:31.684Z,21.80
2018-05-24T23:37:01.159Z,21.80
2018-05-24T23:39:31.072Z,21.70
2018-05-24T23:42:01.059Z,21.70
2018-05-24T23:44:30.229Z,21.70
2018-05-24T23:46:59.352Z,21.60
2018-05-24T23:49:28.395Z,21.60
2018-05-24T23:51:58.315Z,21.50
2018-05-24T23:54:27.462Z,21.50
2018-05-24T23:56:57.853Z,21.50
2018-05-24T23:59:27.152Z,21.40
